OIBA  Abumusa Island Airport

Add Bookmark

Iran

Status IATA
Operational AEU
Latitude Longitude
25° 52' 32" N 55° 1' 58" E
25.875700 55.033001
Local (DST + 5) UTC (GMT + 4)
Jan 25, 2015 01:43 Jan 25, 2015 10:13
Sunrise-Sunset Local UTC
Begin Civil Twilight 06:10 02:40
Sunrise 06:35 03:05
Sunset 05:29 13:59
End Civil Twilight 05:53 14:23

Current Weather

METAR Observed MVFR
OIBA 250900Z 03010KT 6000 SKC 24/09 Q1022 Sun, Jan 25, 2015 @ 09:00 UTC
(1 Hour, 13 Minutes ago)
Marginal Visual Flight Rules
Wind Visibility Clouds Conditions
030° at 10 knots (19 kph) 6000 meters
  • Clear skies
  • No significant weather
Temperatures Readings Precipitation
Current Temp 24°C (75°F)
Dewpoint 9°C (48°F)
Humidity 39%
Altimeter 30.18"Hg
Sea Level Pressure 1022mb
Field Elevation 22.97'
None Recorded

Additional weather within a 92.6km radius of OIBA

Map ICAO Location
OIBS 49.4km W (274°)
OIBL 75.7km N (344°)
OMDB 76.9km S (154°)
OMSJ 77.8km S (141°)

24 Hour Weather History

Loading
-

24 Hour Weather Graphs

Loading
-

CheckWX.com is intended as a tool to help pilots better visualize weather data. It is not intended as a substitute for an official weather briefing obtained from a Flight Service Station. CheckWX.com does not meet the FAA requirements for an official pre-flight weather briefing. Therefore, it's important that pilots still call and obtain an official FSS pre-flight weather briefing.